Time;durP1;ratioP1;P1;durP2;ratioP2;P2;SDS_P1;SDS_P2;PMS_P1;PMS_P2;Temp;Humidity;BMP_temperature;BMP_pressure;BME280_temperature;BME280_humidity;BME280_pressure;Samples;Min_cycle;Max_cycle;Signal;HPM_P1;HPM_P2
2022/08/28 00:01:46;;;;;;;6.60;5.07;;;;;;;20.39;71.44;96650.00;10457152;28;20114;-59
2022/08/28 00:07:05;;;;;;;6.30;5.80;;;;;;;20.41;71.50;96651.22;10460589;28;20049;-60
2022/08/28 00:12:25;;;;;;;5.75;5.25;;;;;;;20.40;71.33;96646.16;10460807;28;20048;-60
2022/08/28 00:17:48;;;;;;;5.30;4.90;;;;;;;20.40;71.45;96643.44;10460111;28;20061;-60
2022/08/28 00:23:07;;;;;;;5.25;4.85;;;;;;;20.41;71.41;96642.34;10456201;28;20083;-60
2022/08/28 00:28:28;;;;;;;5.35;4.95;;;;;;;20.39;71.39;96648.06;10459311;28;20055;-58
2022/08/28 00:33:48;;;;;;;5.10;4.70;;;;;;;20.40;71.45;96646.94;10457456;28;20060;-60
2022/08/28 00:39:08;;;;;;;5.47;4.97;;;;;;;20.41;71.27;96647.75;10459668;28;20049;-60
2022/08/28 00:44:28;;;;;;;5.53;5.03;;;;;;;20.40;71.30;96646.16;10450384;28;20086;-59
2022/08/28 00:49:50;;;;;;;5.30;4.90;;;;;;;20.41;71.27;96634.22;10467140;28;20040;-59
2022/08/28 00:55:19;;;;;;;5.60;5.10;;;;;;;20.40;71.28;96638.81;10471896;28;20056;-60
2022/08/28 01:00:39;;;;;;;8.57;5.22;;;;;;;20.40;71.39;96633.41;10465132;28;20535;-50
2022/08/28 01:05:59;;;;;;;5.03;4.63;;;;;;;20.40;71.30;96621.78;10458405;28;20130;-52
2022/08/28 01:11:19;;;;;;;5.18;4.78;;;;;;;20.40;71.25;96627.22;10445993;28;20052;-52
2022/08/28 01:16:40;;;;;;;5.32;4.82;;;;;;;20.40;71.27;96619.09;10458017;28;20056;-51
2022/08/28 01:22:21;;;;;;;4.88;4.47;;;;;;;20.39;71.30;96623.72;10457315;28;20481;-51
2022/08/28 01:27:41;;;;;;;4.80;4.43;;;;;;;20.40;71.10;96625.28;10456451;28;20053;-52
2022/08/28 01:33:01;;;;;;;5.03;4.53;;;;;;;20.40;71.31;96622.56;10456407;28;20060;-51
2022/08/28 01:38:20;;;;;;;4.57;4.18;;;;;;;20.41;71.22;96626.88;10456297;28;20063;-50
2022/08/28 01:43:41;;;;;;;4.63;4.32;;;;;;;20.40;71.14;96619.09;10457039;28;20049;-49
2022/08/28 01:49:02;;;;;;;4.63;4.22;;;;;;;20.40;71.25;96633.41;10455312;28;20053;-50
2022/08/28 01:54:21;;;;;;;4.88;4.47;;;;;;;20.39;71.04;96639.16;10445445;28;20076;-52
2022/08/28 01:59:41;;;;;;;4.85;4.45;;;;;;;20.40;71.28;96640.72;10443248;28;20049;-50
2022/08/28 02:05:00;;;;;;;4.63;4.22;;;;;;;20.40;71.09;96640.72;10456156;28;20056;-51
2022/08/28 02:10:24;;;;;;;4.90;4.47;;;;;;;20.41;71.20;96642.34;10469193;28;20048;-52
2022/08/28 02:15:44;;;;;;;5.45;4.40;;;;;;;20.40;71.14;96654.25;10448154;28;20626;-51
2022/08/28 02:21:05;;;;;;;4.35;4.00;;;;;;;20.40;71.21;96646.16;10455824;28;20076;-51
2022/08/28 02:26:24;;;;;;;4.43;3.95;;;;;;;20.39;71.17;96639.94;10468943;28;20041;-52
2022/08/28 02:31:44;;;;;;;4.97;4.47;;;;;;;20.40;71.04;96643.44;10446414;28;20045;-51
2022/08/28 02:37:07;;;;;;;4.95;4.15;;;;;;;20.40;71.10;96635.31;10455463;28;20053;-50
2022/08/28 02:42:28;;;;;;;5.07;4.25;;;;;;;20.40;70.96;96632.63;10441810;28;20059;-51
2022/08/28 02:47:51;;;;;;;4.20;3.90;;;;;;;20.40;71.01;96629.91;10455093;28;20056;-50
2022/08/28 02:53:10;;;;;;;4.38;3.97;;;;;;;20.41;71.08;96634.22;10454957;28;20056;-49
2022/08/28 02:58:31;;;;;;;4.15;3.85;;;;;;;20.40;71.00;96640.72;10454900;28;20408;-50
2022/08/28 03:03:51;;;;;;;4.68;4.28;;;;;;;20.40;71.11;96640.72;10454055;28;20053;-51
2022/08/28 03:09:10;;;;;;;4.40;4.10;;;;;;;20.39;70.95;96637.25;10454168;28;20099;-51
2022/08/28 03:14:29;;;;;;;4.30;3.90;;;;;;;20.41;70.95;96634.22;10458581;28;20506;-52
2022/08/28 03:19:49;;;;;;;4.35;3.75;;;;;;;20.40;71.03;96638.03;10475722;28;20557;-51
2022/08/28 03:25:11;;;;;;;4.05;3.75;;;;;;;20.39;71.04;96639.94;10475921;28;20045;-50
2022/08/28 03:30:30;;;;;;;3.83;3.58;;;;;;;20.40;70.94;96638.81;10461550;28;20061;-50
2022/08/28 03:35:49;;;;;;;4.10;3.70;;;;;;;20.40;71.06;96641.53;10451168;28;20049;-52
2022/08/28 03:41:14;;;;;;;3.90;3.60;;;;;;;20.41;70.85;96636.91;10461479;28;20049;-48
2022/08/28 03:46:34;;;;;;;3.90;3.60;;;;;;;20.41;71.04;96642.34;10457594;28;20122;-50
2022/08/28 03:51:53;;;;;;;4.00;3.70;;;;;;;20.40;70.92;96638.03;10461104;28;20037;-51
2022/08/28 03:57:19;;;;;;;3.58;3.38;;;;;;;20.41;70.98;96636.91;10461022;28;20052;-51
2022/08/28 04:02:40;;;;;;;4.28;3.88;;;;;;;20.40;70.88;96640.72;10460324;28;20489;-51
2022/08/28 04:08:01;;;;;;;3.92;3.63;;;;;;;20.40;70.90;96643.44;10473629;28;20048;-52
2022/08/28 04:13:21;;;;;;;3.92;3.63;;;;;;;20.39;70.92;96653.47;10463633;28;20542;-51
2022/08/28 04:18:41;;;;;;;3.70;3.40;;;;;;;20.40;70.97;96656.97;10459882;28;20485;-48
2022/08/28 04:24:01;;;;;;;4.05;3.65;;;;;;;20.40;70.88;96663.16;10459782;28;20107;-51
2022/08/28 04:29:21;;;;;;;3.90;3.60;;;;;;;20.40;70.97;96662.38;10459397;28;20053;-51
2022/08/28 04:34:41;;;;;;;4.13;3.72;;;;;;;20.39;70.75;96668.94;10459114;28;20502;-52
2022/08/28 04:40:04;;;;;;;3.50;3.30;;;;;;;20.39;70.84;96677.03;10472911;28;20045;-50
2022/08/28 04:45:24;;;;;;;3.47;3.28;;;;;;;20.40;70.84;96670.50;10446434;28;20053;-52
2022/08/28 04:50:46;;;;;;;3.63;3.33;;;;;;;20.40;70.89;96673.19;10458487;28;20492;-51
2022/08/28 04:56:09;;;;;;;3.78;3.47;;;;;;;20.40;70.83;96673.19;10472316;28;20041;-51
2022/08/28 05:01:29;;;;;;;3.70;3.40;;;;;;;20.39;70.86;96671.63;10471826;28;20114;-50
2022/08/28 05:06:48;;;;;;;3.60;3.30;;;;;;;20.40;70.80;96678.63;10472088;28;20033;-50
2022/08/28 05:12:07;;;;;;;3.50;3.20;;;;;;;20.40;70.71;96689.44;10458280;28;20045;-52
2022/08/28 05:17:27;;;;;;;3.50;3.20;;;;;;;20.39;70.73;96688.66;10457495;28;20477;-51
2022/08/28 05:22:47;;;;;;;3.17;2.97;;;;;;;20.40;70.64;96697.56;10471109;28;20048;-51
2022/08/28 05:28:08;;;;;;;3.22;3.03;;;;;;;20.39;70.74;96706.81;10453733;28;20064;-52
2022/08/28 05:33:27;;;;;;;2.92;2.72;;;;;;;20.39;70.70;96706.81;10456559;28;20068;-52
2022/08/28 05:38:47;;;;;;;3.22;3.03;;;;;;;20.39;70.73;96706.81;10455646;28;20083;-52
2022/08/28 05:44:09;;;;;;;3.25;2.97;;;;;;;20.39;70.74;96709.50;10469862;28;20052;-51
2022/08/28 05:49:28;;;;;;;3.35;2.92;;;;;;;20.39;70.64;96715.72;10456690;28;20053;-51
2022/08/28 05:54:47;;;;;;;3.05;2.78;;;;;;;20.39;70.73;96714.94;10456081;28;20462;-52
2022/08/28 06:00:11;;;;;;;3.33;3.08;;;;;;;20.40;70.64;96721.91;10456016;28;20049;-52
2022/08/28 06:05:30;;;;;;;3.40;3.10;;;;;;;20.40;70.69;96728.09;10456113;28;20045;-51
2022/08/28 06:10:50;;;;;;;2.88;2.67;;;;;;;20.40;70.58;96724.59;10447482;28;20056;-52
2022/08/28 06:16:10;;;;;;;3.00;2.80;;;;;;;20.39;70.60;96725.75;10469113;28;20041;-52
2022/08/28 06:21:30;;;;;;;3.00;2.80;;;;;;;20.40;70.62;96738.13;10469143;28;20480;-50
2022/08/28 06:26:51;;;;;;;2.67;2.47;;;;;;;20.40;70.81;96738.91;10453738;28;20045;-52
2022/08/28 06:32:10;;;;;;;2.80;2.60;;;;;;;20.40;70.51;96738.13;10459051;28;20048;-51
2022/08/28 06:37:30;;;;;;;2.72;2.53;;;;;;;20.39;70.59;96731.94;10454716;28;20048;-52
2022/08/28 06:42:50;;;;;;;2.65;2.45;;;;;;;20.39;70.53;96740.06;10455538;28;20045;-51
2022/08/28 06:48:15;;;;;;;3.10;2.90;;;;;;;20.39;70.51;96742.75;10458953;28;20055;-51
2022/08/28 06:53:35;;;;;;;2.90;2.70;;;;;;;20.40;70.62;96748.97;10463283;28;20049;-51
2022/08/28 06:58:55;;;;;;;2.80;2.60;;;;;;;20.39;70.66;96755.50;10476600;28;20037;-50
2022/08/28 07:04:15;;;;;;;2.65;2.45;;;;;;;20.40;70.46;96757.06;10475584;28;20385;-50
2022/08/28 07:09:34;;;;;;;2.53;2.35;;;;;;;20.40;70.63;96763.28;10463099;28;20130;-50
2022/08/28 07:14:53;;;;;;;2.85;2.65;;;;;;;20.39;70.59;96756.28;10452641;28;20099;-51
2022/08/28 07:20:13;;;;;;;2.85;2.65;;;;;;;20.39;70.56;96763.63;10462373;28;20079;-51
2022/08/28 07:25:32;;;;;;;2.67;2.47;;;;;;;20.38;70.42;96765.53;10459136;28;20057;-51
2022/08/28 07:31:00;;;;;;;2.78;2.58;;;;;;;20.40;70.52;96770.59;10461849;28;20067;-52
2022/08/28 07:36:24;;;;;;;2.70;2.50;;;;;;;20.39;70.56;96777.16;10461740;28;20053;-51
2022/08/28 07:41:43;;;;;;;2.60;2.40;;;;;;;20.40;70.50;96776.03;10461734;28;20099;-52
2022/08/28 07:47:04;;;;;;;2.60;2.40;;;;;;;20.39;70.42;96774.44;10461608;28;20060;-50
2022/08/28 07:52:23;;;;;;;2.80;2.50;;;;;;;20.40;70.33;96776.03;10461213;28;20102;-51
2022/08/28 07:57:43;;;;;;;2.60;2.40;;;;;;;20.39;70.42;96783.34;10460052;28;20056;-52
2022/08/28 08:03:02;;;;;;;2.60;2.40;;;;;;;20.40;70.37;96797.66;10460974;28;20052;-50
2022/08/28 08:08:21;;;;;;;2.50;2.30;;;;;;;20.39;70.40;96802.28;10453650;28;20049;-51
2022/08/28 08:13:42;;;;;;;2.67;2.47;;;;;;;20.38;70.31;96798.00;10473747;28;20041;-52
2022/08/28 08:19:02;;;;;;;2.75;2.55;;;;;;;20.40;70.40;96813.91;10460180;28;20053;-51
2022/08/28 08:24:27;;;;;;;2.70;2.50;;;;;;;20.40;70.45;96813.91;10446874;28;20053;-49
2022/08/28 08:29:47;;;;;;;2.97;2.58;;;;;;;20.39;70.33;96821.22;10459215;28;20061;-52
2022/08/28 08:35:07;;;;;;;2.67;2.47;;;;;;;20.39;70.36;96823.16;10459164;28;20496;-52
2022/08/28 08:40:27;;;;;;;2.50;2.30;;;;;;;20.40;70.41;96824.72;10458996;28;20060;-52
2022/08/28 08:45:47;;;;;;;2.88;2.67;;;;;;;20.39;70.27;96823.94;10459455;28;20056;-50
2022/08/28 08:51:14;;;;;;;2.50;2.30;;;;;;;20.39;70.36;96825.84;10458793;28;20049;-50
2022/08/28 08:56:33;;;;;;;2.65;2.45;;;;;;;20.40;70.22;96835.53;10458571;28;20131;-51
2022/08/28 09:02:04;;;;;;;2.72;2.53;;;;;;;20.39;70.28;96851.00;10458806;28;20083;-51
2022/08/28 09:07:28;;;;;;;2.95;2.75;;;;;;;20.39;70.43;96847.50;10471965;28;20095;-51
2022/08/28 09:12:54;;;;;;;2.80;2.60;;;;;;;20.39;70.33;96853.69;10456631;28;20132;-52
2022/08/28 09:18:26;;;;;;;2.63;2.42;;;;;;;20.39;70.34;96856.41;10457163;28;20052;-51
2022/08/28 09:23:45;;;;;;;2.72;2.53;;;;;;;20.40;70.21;96868.00;10457032;28;20045;-52
2022/08/28 09:29:09;;;;;;;2.75;2.55;;;;;;;20.41;70.28;96866.91;10469337;28;20083;-50
2022/08/28 09:34:31;;;;;;;2.97;2.75;;;;;;;20.41;70.28;96867.69;10443218;28;20103;-49
2022/08/28 09:40:13;;;;;;;2.60;2.40;;;;;;;20.40;70.22;96868.78;10456971;28;20060;-50
2022/08/28 09:45:33;;;;;;;2.90;2.30;;;;;;;20.40;70.17;96878.84;10456926;28;20049;-52
2022/08/28 09:51:02;;;;;;;2.55;2.35;;;;;;;20.41;70.20;96880.44;10455858;28;20053;-51
2022/08/28 09:56:33;;;;;;;2.90;2.65;;;;;;;20.40;70.25;96878.84;10470061;28;20041;-52
2022/08/28 10:02:11;;;;;;;3.03;2.60;;;;;;;20.41;70.07;96883.16;10445697;28;20076;-52
2022/08/28 10:07:38;;;;;;;2.55;2.35;;;;;;;20.41;70.06;96885.84;10469522;28;20037;-52
2022/08/28 10:13:13;;;;;;;2.42;2.30;;;;;;;20.41;70.21;96888.56;10455104;28;20056;-50
2022/08/28 10:18:54;;;;;;;3.08;2.78;;;;;;;20.42;70.30;96892.84;10456040;28;20408;-52
2022/08/28 10:24:13;;;;;;;2.80;2.50;;;;;;;20.41;70.06;96885.84;10455522;28;20471;-53
2022/08/28 10:29:36;;;;;;;2.70;2.50;;;;;;;20.42;70.14;96892.84;10451004;28;20062;-50
2022/08/28 10:35:13;;;;;;;2.58;2.38;;;;;;;20.42;70.11;96890.13;10451458;28;20559;-51
2022/08/28 10:41:00;;;;;;;2.80;2.60;;;;;;;20.41;69.99;96888.56;10454473;28;20060;-51
2022/08/28 10:46:30;;;;;;;2.80;2.60;;;;;;;20.41;70.09;96891.25;10455684;28;20057;-51
2022/08/28 10:51:53;;;;;;;2.42;2.22;;;;;;;20.42;70.07;96895.53;10454396;28;20099;-50
2022/08/28 10:57:35;;;;;;;2.70;2.50;;;;;;;20.42;70.00;96890.13;10495318;28;20461;-51
2022/08/28 11:03:07;;;;;;;2.53;2.33;;;;;;;20.42;70.14;96890.13;10454060;28;20049;-52
2022/08/28 11:08:29;;;;;;;2.72;2.53;;;;;;;20.43;70.06;96897.13;10454936;28;20113;-52
2022/08/28 11:13:55;;;;;;;2.47;2.28;;;;;;;20.43;69.98;96891.72;10454413;28;20040;-51
2022/08/28 11:19:25;;;;;;;2.42;2.22;;;;;;;20.43;70.04;96891.72;10453001;28;20128;-52
2022/08/28 11:24:55;;;;;;;2.67;2.47;;;;;;;20.43;70.07;96900.63;10445074;28;20044;-50
2022/08/28 11:30:15;;;;;;;2.88;2.55;;;;;;;20.43;70.03;96897.13;10462935;28;20547;-50
2022/08/28 11:35:34;;;;;;;2.78;2.58;;;;;;;20.44;70.03;96896.00;10459131;28;20064;-51
2022/08/28 11:40:55;;;;;;;2.60;2.40;;;;;;;20.44;70.17;96904.13;10451343;28;20095;-50
2022/08/28 11:46:15;;;;;;;2.80;2.55;;;;;;;20.45;70.10;96903.00;10461800;28;20064;-50
2022/08/28 11:52:12;;;;;;;2.72;2.50;;;;;;;20.44;70.13;96902.19;10461298;28;20045;-50
2022/08/28 11:57:40;;;;;;;2.45;2.33;;;;;;;20.45;70.10;96908.44;10454370;28;20049;-52
2022/08/28 12:03:15;;;;;;;2.63;2.42;;;;;;;20.45;70.06;96913.84;10459546;28;20048;-52
2022/08/28 12:08:43;;;;;;;2.67;2.47;;;;;;;20.45;70.17;96908.44;10456529;28;20409;-50
2022/08/28 12:14:03;;;;;;;2.70;2.50;;;;;;;20.45;70.11;96914.63;10459919;28;20107;-51
2022/08/28 12:19:31;;;;;;;2.42;2.20;;;;;;;20.47;70.17;96922.41;10460299;28;20064;-51
2022/08/28 12:24:53;;;;;;;2.58;2.38;;;;;;;20.47;70.00;96911.59;10460457;28;20045;-50
2022/08/28 12:30:26;;;;;;;2.88;2.67;;;;;;;20.46;69.95;96910.00;10459469;28;20060;-50
2022/08/28 12:35:46;;;;;;;2.83;2.63;;;;;;;20.46;70.03;96918.91;10460366;28;20096;-51
2022/08/28 12:41:13;;;;;;;4.07;2.70;;;;;;;20.47;70.00;96920.50;10473133;28;20045;-50
2022/08/28 12:46:36;;;;;;;2.50;2.30;;;;;;;20.47;70.07;96917.78;10457560;28;20053;-50
2022/08/28 12:52:25;;;;;;;2.70;2.28;;;;;;;20.46;69.90;96918.91;10445174;28;20136;-50
2022/08/28 12:57:46;;;;;;;2.67;2.47;;;;;;;20.47;70.03;96919.72;10456887;28;20057;-52
2022/08/28 13:03:06;;;;;;;2.63;2.42;;;;;;;20.46;69.96;96918.91;10464724;28;20061;-50
2022/08/28 13:08:25;;;;;;;2.85;2.65;;;;;;;20.47;69.95;96920.50;10447771;28;20084;-52
2022/08/28 13:13:47;;;;;;;2.72;2.53;;;;;;;20.47;70.08;96923.22;10458174;28;20045;-51
2022/08/28 13:19:06;;;;;;;3.35;2.50;;;;;;;20.47;69.91;96923.22;10470373;28;20033;-51
2022/08/28 13:24:44;;;;;;;2.53;2.33;;;;;;;20.47;70.07;96923.22;10457289;28;20496;-51
2022/08/28 13:30:12;;;;;;;2.90;2.70;;;;;;;20.47;69.94;96925.91;10456961;28;20056;-50
2022/08/28 13:35:37;;;;;;;2.80;2.60;;;;;;;20.47;69.90;96922.41;10457244;28;20041;-50
2022/08/28 13:41:01;;;;;;;2.40;2.20;;;;;;;20.48;69.92;96918.56;10457001;28;20053;-52
2022/08/28 13:46:21;;;;;;;2.60;2.38;;;;;;;20.47;70.02;96922.41;10457114;28;20049;-50
2022/08/28 13:51:40;;;;;;;2.50;2.30;;;;;;;20.46;69.77;96916.19;10456701;28;20450;-50
2022/08/28 13:57:00;;;;;;;2.72;2.53;;;;;;;20.47;69.94;96917.78;10455292;28;20055;-51
2022/08/28 14:07:58;;;;;;;2.60;2.40;;;;;;;20.47;69.77;96925.13;10454986;28;20053;-52
2022/08/28 14:13:18;;;;;;;2.80;2.60;;;;;;;20.47;69.97;96927.84;10455837;28;20040;-51
2022/08/28 14:18:38;;;;;;;3.10;2.40;;;;;;;20.47;69.84;96922.41;10455940;28;20450;-50
2022/08/28 14:23:58;;;;;;;2.50;2.30;;;;;;;20.47;69.86;96925.13;10455925;28;20101;-51
2022/08/28 14:29:17;;;;;;;2.58;2.38;;;;;;;20.48;69.90;96927.50;10444092;28;20056;-52
2022/08/28 14:34:37;;;;;;;2.85;2.65;;;;;;;20.48;69.89;96918.56;10455608;28;20058;-50
2022/08/28 14:39:56;;;;;;;2.63;2.40;;;;;;;20.48;69.77;96913.97;10454881;28;20064;-52
2022/08/28 14:45:15;;;;;;;3.63;2.58;;;;;;;20.48;69.86;96919.38;10454398;28;20079;-52
2022/08/28 14:50:43;;;;;;;2.50;2.30;;;;;;;20.47;69.83;96917.78;10444497;28;20048;-51
2022/08/28 14:56:06;;;;;;;2.50;2.30;;;;;;;20.47;69.89;96925.13;10455252;28;20057;-51
2022/08/28 15:01:30;;;;;;;2.55;2.35;;;;;;;20.46;69.71;96921.59;10454386;28;20056;-52
2022/08/28 15:06:55;;;;;;;2.85;2.65;;;;;;;20.47;69.78;96923.22;10445349;28;20060;-51
2022/08/28 15:12:15;;;;;;;4.25;2.60;;;;;;;20.47;69.79;96927.84;10462857;28;20056;-51
2022/08/28 15:17:34;;;;;;;2.60;2.40;;;;;;;20.47;69.85;96934.03;10462956;28;20131;-50
2022/08/28 15:22:54;;;;;;;2.80;2.60;;;;;;;20.48;69.78;96924.00;10462414;28;20170;-50
2022/08/28 15:28:13;;;;;;;2.42;2.22;;;;;;;20.50;69.79;96937.97;10462628;28;20060;-51
2022/08/28 15:33:33;;;;;;;3.25;2.70;;;;;;;20.48;69.64;96932.09;10461455;28;20122;-52
2022/08/28 15:44:31;;;;;;;2.83;2.53;;;;;;;20.48;69.75;96924.00;10461855;28;20068;-51
2022/08/28 15:49:55;;;;;;;2.53;2.40;;;;;;;20.47;69.78;96922.41;10461814;28;20049;-50
2022/08/28 15:55:14;;;;;;;2.47;2.28;;;;;;;20.47;69.76;96925.91;10452911;28;20110;-51
2022/08/28 16:00:34;;;;;;;2.45;2.30;;;;;;;20.48;69.70;96929.41;10461080;28;20041;-50
2022/08/28 16:05:53;;;;;;;2.50;2.30;;;;;;;20.48;69.66;96934.81;10474324;28;20465;-51
2022/08/28 16:11:18;;;;;;;2.70;2.50;;;;;;;20.49;69.64;96936.41;10474114;28;20381;-51
2022/08/28 16:16:37;;;;;;;2.58;2.38;;;;;;;20.48;69.65;96932.91;10460484;28;20102;-51
2022/08/28 16:21:57;;;;;;;2.63;2.42;;;;;;;20.49;69.69;96931.00;10473434;28;20063;-53
2022/08/28 16:27:16;;;;;;;2.67;2.47;;;;;;;20.48;69.63;96929.41;10473589;28;20514;-50
2022/08/28 16:32:36;;;;;;;2.70;2.50;;;;;;;20.47;69.64;96922.41;10459516;28;20087;-51
2022/08/28 16:37:56;;;;;;;2.80;2.60;;;;;;;20.47;69.63;96928.63;10472991;28;20492;-50
2022/08/28 16:43:15;;;;;;;3.05;2.55;;;;;;;20.47;69.65;96927.84;10454983;28;20091;-51
2022/08/28 16:48:35;;;;;;;2.45;2.25;;;;;;;20.48;69.61;96932.91;10459231;28;20056;-51
2022/08/28 16:53:55;;;;;;;2.65;2.45;;;;;;;20.47;69.67;96928.63;10459217;28;20103;-51
2022/08/28 16:59:19;;;;;;;2.80;2.55;;;;;;;20.47;69.69;96923.22;10458795;28;20056;-51
2022/08/28 17:04:38;;;;;;;2.92;2.72;;;;;;;20.47;69.57;96934.03;10458712;28;20060;-49
2022/08/28 17:09:58;;;;;;;2.55;2.40;;;;;;;20.48;69.56;96934.81;10461016;28;20519;-51
2022/08/28 17:15:17;;;;;;;2.83;2.63;;;;;;;20.48;69.62;96934.81;10458518;28;20052;-52
2022/08/28 17:26:16;;;;;;;2.63;2.42;;;;;;;20.47;69.53;96950.25;10447063;28;20412;-51
2022/08/28 17:31:35;;;;;;;3.10;2.80;;;;;;;20.47;69.38;96955.69;10456035;28;20049;-51
2022/08/28 17:36:55;;;;;;;2.78;2.58;;;;;;;20.47;69.42;96963.78;10456209;28;20061;-49
2022/08/28 17:42:14;;;;;;;2.90;2.70;;;;;;;20.47;69.55;96966.50;10444694;28;20041;-50
2022/08/28 17:47:33;;;;;;;2.92;2.72;;;;;;;20.47;69.35;96977.31;10456496;28;20056;-51
2022/08/28 17:52:52;;;;;;;3.00;2.80;;;;;;;20.47;69.41;96988.16;10456814;28;20056;-51
2022/08/28 17:58:12;;;;;;;3.00;2.75;;;;;;;20.47;69.47;96987.38;10456592;28;20107;-52
2022/08/28 18:03:31;;;;;;;3.17;2.97;;;;;;;20.46;69.38;96991.97;10445683;28;20045;-50
2022/08/28 18:08:50;;;;;;;3.70;3.10;;;;;;;20.47;69.38;96996.28;10456260;28;20056;-50
2022/08/28 18:14:10;;;;;;;2.80;2.60;;;;;;;20.47;69.40;97001.69;10456125;28;20049;-50
2022/08/28 18:19:29;;;;;;;3.00;2.80;;;;;;;20.46;69.45;97002.00;10443851;28;20068;-50
2022/08/28 18:24:51;;;;;;;2.92;2.72;;;;;;;20.45;69.33;97014.75;10455961;28;20045;-51
2022/08/28 18:30:11;;;;;;;3.30;3.00;;;;;;;20.46;69.47;97013.63;10454792;28;20083;-51
2022/08/28 18:35:35;;;;;;;2.92;2.65;;;;;;;20.46;69.36;97029.06;10454611;28;20497;-51
2022/08/28 18:40:55;;;;;;;3.10;2.90;;;;;;;20.46;69.35;97029.84;10455296;28;20119;-52
2022/08/28 18:46:14;;;;;;;2.85;2.65;;;;;;;20.45;69.37;97035.59;10455128;28;20049;-50
2022/08/28 18:51:33;;;;;;;3.20;2.90;;;;;;;20.44;69.12;97034.78;10451628;28;20132;-51
2022/08/28 18:56:54;;;;;;;3.20;2.90;;;;;;;20.46;69.29;97029.06;10455112;28;20061;-51
2022/08/28 19:02:15;;;;;;;3.15;2.85;;;;;;;20.46;69.23;97032.56;10454772;28;20507;-51
2022/08/28 19:07:34;;;;;;;3.13;2.90;;;;;;;20.45;69.28;97035.59;10455092;28;20126;-51
2022/08/28 19:12:54;;;;;;;4.22;3.28;;;;;;;20.44;69.28;97042.13;10454854;28;20175;-51
2022/08/28 19:18:14;;;;;;;4.75;3.05;;;;;;;20.44;69.30;97051.03;10455093;28;20053;-51
2022/08/28 19:23:34;;;;;;;3.08;2.85;;;;;;;20.44;69.13;97048.31;10454889;28;20045;-50
2022/08/28 19:28:54;;;;;;;7.18;3.30;;;;;;;20.44;69.17;97055.66;10453499;28;20060;-52
2022/08/28 19:34:13;;;;;;;3.60;3.30;;;;;;;20.43;69.24;97051.38;10445703;28;20465;-51
2022/08/28 19:39:32;;;;;;;3.97;3.42;;;;;;;20.44;69.11;97055.66;10460361;28;20037;-51
2022/08/28 19:44:51;;;;;;;4.13;3.05;;;;;;;20.44;69.00;97064.56;10467736;28;20712;-50
2022/08/28 19:50:13;;;;;;;3.35;3.05;;;;;;;20.43;68.92;97063.00;10466360;28;20048;-52
2022/08/28 19:55:33;;;;;;;5.00;3.08;;;;;;;20.44;68.92;97067.25;10456966;28;20049;-50
2022/08/28 20:00:52;;;;;;;3.67;3.25;;;;;;;20.44;68.96;97063.78;10474285;28;20049;-52
2022/08/28 20:06:12;;;;;;;3.58;3.25;;;;;;;20.43;68.73;97064.91;10461363;28;20049;-50
2022/08/28 20:11:32;;;;;;;3.30;3.00;;;;;;;20.43;68.66;97067.63;10449698;28;20140;-50
2022/08/28 20:16:53;;;;;;;3.25;2.95;;;;;;;20.44;68.62;97063.78;10459124;28;20509;-50
2022/08/28 20:22:13;;;;;;;3.40;3.10;;;;;;;20.43;68.65;97075.72;10460505;28;20049;-52
2022/08/28 20:27:33;;;;;;;3.70;3.25;;;;;;;20.43;68.87;97073.03;10455159;28;20382;-51
2022/08/28 20:32:53;;;;;;;3.55;3.10;;;;;;;20.43;68.55;97083.84;10458984;28;20195;-49
2022/08/28 20:38:12;;;;;;;3.33;3.03;;;;;;;20.43;68.47;97084.63;10459686;28;20065;-50
2022/08/28 20:43:33;;;;;;;3.80;3.45;;;;;;;20.42;68.55;97093.84;10471475;28;20057;-51
2022/08/28 20:48:52;;;;;;;3.22;2.92;;;;;;;20.43;68.54;97091.97;10447977;28;20064;-51
2022/08/28 20:54:12;;;;;;;3.60;3.30;;;;;;;20.42;68.50;97098.47;10458510;28;20053;-53
2022/08/28 20:59:31;;;;;;;3.53;3.15;;;;;;;20.41;68.39;97096.91;10458962;28;20049;-51
2022/08/28 21:04:51;;;;;;;3.42;3.15;;;;;;;20.41;68.40;97097.69;10457886;28;20563;-50
2022/08/28 21:10:10;;;;;;;2.85;2.65;;;;;;;20.41;68.27;97102.31;10458845;28;20055;-52
2022/08/28 21:15:30;;;;;;;3.80;3.33;;;;;;;20.40;68.35;97111.53;10458466;28;20393;-51
2022/08/28 21:20:49;;;;;;;3.30;3.08;;;;;;;20.40;68.38;97104.22;10471752;28;20052;-52
2022/08/28 21:26:10;;;;;;;3.58;3.13;;;;;;;20.41;68.15;97102.31;10458003;28;20082;-51
2022/08/28 21:31:29;;;;;;;3.03;2.83;;;;;;;20.40;68.37;97106.13;10457027;28;20044;-48
2022/08/28 21:36:49;;;;;;;3.78;3.35;;;;;;;20.40;68.35;97106.13;10471031;28;20044;-51
2022/08/28 21:42:09;;;;;;;3.50;3.20;;;;;;;20.40;68.31;97115.03;10456897;28;20492;-50
2022/08/28 21:47:28;;;;;;;3.58;3.28;;;;;;;20.40;68.28;97106.13;10457313;28;20068;-51
2022/08/28 21:52:48;;;;;;;3.08;2.88;;;;;;;20.40;68.32;97114.25;10456955;28;20052;-50
2022/08/28 21:58:07;;;;;;;3.35;3.00;;;;;;;20.40;68.20;97112.31;10456652;28;20060;-50
2022/08/28 22:03:28;;;;;;;3.50;3.20;;;;;;;20.39;68.10;97118.09;10445380;28;20045;-52
2022/08/28 22:08:47;;;;;;;3.50;3.20;;;;;;;20.39;68.09;97118.09;10456412;28;20053;-50
2022/08/28 22:14:07;;;;;;;3.40;3.10;;;;;;;20.38;67.98;97121.91;10469434;28;20048;-51
2022/08/28 22:19:26;;;;;;;3.50;3.20;;;;;;;20.40;68.08;97130.47;10446377;28;20057;-51
2022/08/28 22:24:46;;;;;;;3.70;3.40;;;;;;;20.39;68.03;97137.03;10455878;28;20404;-51
2022/08/28 22:30:07;;;;;;;3.75;3.45;;;;;;;20.39;67.71;97131.63;10455433;28;20114;-52
2022/08/28 22:35:27;;;;;;;3.30;3.00;;;;;;;20.37;67.83;97123.03;10468778;28;20080;-52
2022/08/28 22:40:47;;;;;;;3.40;3.10;;;;;;;20.38;67.90;97130.78;10455565;28;20119;-51
2022/08/28 22:46:07;;;;;;;3.65;3.35;;;;;;;20.38;67.59;97132.72;10455520;28;20049;-50
2022/08/28 22:51:27;;;;;;;3.78;3.47;;;;;;;20.37;67.83;97126.53;10455217;28;20076;-51
2022/08/28 22:56:46;;;;;;;3.58;3.28;;;;;;;20.37;67.61;97125.72;10454929;28;20741;-49
2022/08/28 23:02:06;;;;;;;4.80;3.70;;;;;;;20.37;67.71;97129.22;10455151;28;20068;-50
2022/08/28 23:07:26;;;;;;;3.97;3.55;;;;;;;20.37;67.69;97125.72;10454937;28;20052;-50
2022/08/28 23:12:45;;;;;;;3.78;3.47;;;;;;;20.37;67.52;97136.56;10454149;28;20049;-50
2022/08/28 23:18:04;;;;;;;3.88;3.47;;;;;;;20.37;67.48;97139.25;10457683;28;20378;-52
2022/08/28 23:23:24;;;;;;;3.70;3.40;;;;;;;20.35;67.51;97137.66;10454479;28;20052;-50
2022/08/28 23:28:43;;;;;;;3.58;3.28;;;;;;;20.35;67.44;97136.88;10452144;28;20056;-51
2022/08/28 23:34:03;;;;;;;3.63;3.33;;;;;;;20.34;67.44;97136.06;10461904;28;20397;-51
2022/08/28 23:39:23;;;;;;;3.40;3.10;;;;;;;20.35;67.43;97139.56;10462171;28;20052;-52
2022/08/28 23:44:43;;;;;;;3.58;3.28;;;;;;;20.33;67.46;97134.47;10461406;28;20045;-51
2022/08/28 23:50:04;;;;;;;3.70;3.40;;;;;;;20.34;67.56;97138.75;10475026;28;20059;-50
2022/08/28 23:55:23;;;;;;;3.97;3.60;;;;;;;20.34;67.61;97135.25;10474729;28;20037;-51
